Time;durP1;ratioP1;P1;durP2;ratioP2;P2;SDS_P1;SDS_P2;PMS_P1;PMS_P2;Temp;Humidity;BMP_temperature;BMP_pressure;BME280_temperature;BME280_humidity;BME280_pressure;Samples;Min_cycle;Max_cycle;Signal;HPM_P1;HPM_P2
2021/03/30 05:03:00;;;;;;;;;;;;;;;;;;5082908;28;20376;-63
2021/03/30 05:05:26;;;;;;;0.10;0.10;;;;;;;;;;5087863;28;19908;-64
2021/03/30 05:07:53;;;;;;;0.10;0.10;;;;;;;;;;5079661;28;20112;-63
2021/03/30 05:10:19;;;;;;;0.32;0.32;;;;;;;;;;5073297;28;20040;-64
2021/03/30 05:12:45;;;;;;;0.10;0.10;;;;;;;;;;5073311;28;20460;-63
2021/03/30 05:15:11;;;;;;;0.10;0.10;;;;;;;;;;5070169;28;20452;-63
2021/03/30 05:17:37;;;;;;;0.10;0.10;;;;;;;;;;5069992;28;20111;-63
2021/03/30 05:20:04;;;;;;;0.10;0.10;;;;;;;;;;5082560;28;20446;-64
2021/03/30 05:22:31;;;;;;;0.50;0.50;;;;;;;;;;5076324;28;20024;-64
2021/03/30 05:24:57;;;;;;;0.10;0.10;;;;;;;;;;5073101;28;20036;-64
2021/03/30 05:27:23;;;;;;;0.10;0.10;;;;;;;;;;5070617;28;20608;-64
2021/03/30 05:29:49;;;;;;;0.10;0.10;;;;;;;;;;5068910;28;20429;-63
2021/03/30 05:32:17;;;;;;;0.10;0.10;;;;;;;;;;5071452;28;20038;-64
2021/03/30 05:34:43;;;;;;;0.10;0.10;;;;;;;;;;5071462;28;20029;-63
2021/03/30 05:37:10;;;;;;;0.10;0.10;;;;;;;;;;5071518;28;20021;-63
2021/03/30 05:39:36;;;;;;;0.10;0.10;;;;;;;;;;5072093;28;20031;-63
2021/03/30 05:42:03;;;;;;;0.10;0.10;;;;;;;;;;5067126;28;20027;-65
2021/03/30 05:44:29;;;;;;;0.10;0.10;;;;;;;;;;5070856;28;20514;-64
2021/03/30 05:49:41;;;;;;;0.15;0.15;;;;;;;;;;5071886;28;20514;-65
2021/03/30 05:52:11;;;;;;;0.10;0.10;;;;;;;;;;5069967;28;20094;-64
2021/03/30 05:54:38;;;;;;;0.20;0.20;;;;;;;;;;5071768;28;20035;-64
2021/03/30 05:57:06;;;;;;;0.10;0.10;;;;;;;;;;5066213;28;20020;-64
2021/03/30 05:59:33;;;;;;;0.20;0.20;;;;;;;;;;5067662;28;20394;-63
2021/03/30 06:02:00;;;;;;;0.10;0.10;;;;;;;;;;5067083;28;20041;-63
2021/03/30 06:04:26;;;;;;;0.10;0.10;;;;;;;;;;5056027;28;20405;-64
2021/03/30 06:06:52;;;;;;;0.10;0.10;;;;;;;;;;5058817;28;20409;-62
2021/03/30 06:09:18;;;;;;;0.20;0.20;;;;;;;;;;5067336;28;20017;-63
2021/03/30 06:11:45;;;;;;;0.10;0.10;;;;;;;;;;5069292;28;20115;-63
2021/03/30 06:14:11;;;;;;;0.10;0.10;;;;;;;;;;5068213;28;20036;-64
2021/03/30 06:16:39;;;;;;;0.30;0.30;;;;;;;;;;5069570;28;20032;-63
2021/03/30 06:19:06;;;;;;;0.10;0.10;;;;;;;;;;5069671;28;20032;-63
2021/03/30 06:21:35;;;;;;;0.10;0.10;;;;;;;;;;5069050;28;20033;-63
2021/03/30 06:24:02;;;;;;;0.10;0.10;;;;;;;;;;5054099;28;20077;-63
2021/03/30 06:26:28;;;;;;;0.10;0.10;;;;;;;;;;5069230;28;20029;-63
2021/03/30 06:28:54;;;;;;;0.10;0.10;;;;;;;;;;5059843;28;20555;-63
2021/03/30 06:31:21;;;;;;;0.10;0.10;;;;;;;;;;5063263;28;20630;-64
2021/03/30 06:33:51;;;;;;;0.10;0.10;;;;;;;;;;5066624;28;20401;-64
2021/03/30 06:36:18;;;;;;;0.10;0.10;;;;;;;;;;5054843;28;20472;-64
2021/03/30 06:38:47;;;;;;;0.10;0.10;;;;;;;;;;5055112;28;20037;-64
2021/03/30 06:41:59;;;;;;;0.13;0.13;;;;;;;;;;5056629;28;20029;-64
2021/03/30 06:44:25;;;;;;;0.10;0.10;;;;;;;;;;5061722;28;20024;-63
2021/03/30 06:46:52;;;;;;;0.10;0.10;;;;;;;;;;5065415;28;20036;-64
2021/03/30 06:49:19;;;;;;;0.10;0.10;;;;;;;;;;5062018;28;20032;-63
2021/03/30 06:51:45;;;;;;;0.10;0.10;;;;;;;;;;5068346;28;20040;-63
2021/03/30 06:54:12;;;;;;;0.10;0.10;;;;;;;;;;5069734;28;20095;-63
2021/03/30 06:56:45;;;;;;;0.10;0.10;;;;;;;;;;5067291;28;20501;-63
2021/03/30 06:59:11;;;;;;;0.10;0.10;;;;;;;;;;5068961;28;20029;-63
2021/03/30 07:01:38;;;;;;;0.10;0.10;;;;;;;;;;5067712;28;20040;-63
2021/03/30 07:04:06;;;;;;;0.10;0.10;;;;;;;;;;5064330;28;20033;-65
2021/03/30 07:06:32;;;;;;;0.10;0.10;;;;;;;;;;5067504;28;20082;-64
2021/03/30 07:08:59;;;;;;;0.10;0.10;;;;;;;;;;5069893;28;20444;-64
2021/03/30 07:11:25;;;;;;;0.08;0.08;;;;;;;;;;5068276;28;20020;-64
2021/03/30 07:13:51;;;;;;;0.10;0.10;;;;;;;;;;5066162;28;20029;-61
2021/03/30 07:16:17;;;;;;;0.10;0.10;;;;;;;;;;5067213;28;20081;-64
2021/03/30 07:18:48;;;;;;;0.10;0.10;;;;;;;;;;5067461;28;20035;-63
2021/03/30 07:21:22;;;;;;;0.20;0.20;;;;;;;;;;5069487;28;20485;-63
2021/03/30 07:23:56;;;;;;;0.25;0.25;;;;;;;;;;5065255;28;20028;-63
2021/03/30 07:26:28;;;;;;;0.10;0.10;;;;;;;;;;5069866;28;20021;-63
2021/03/30 07:29:05;;;;;;;0.10;0.10;;;;;;;;;;5066163;28;20486;-64
2021/03/30 07:31:46;;;;;;;0.28;0.28;;;;;;;;;;5066293;28;20174;-63
2021/03/30 07:34:13;;;;;;;0.10;0.10;;;;;;;;;;5065184;28;20028;-64
2021/03/30 07:36:47;;;;;;;1.10;0.68;;;;;;;;;;5067557;28;20040;-64
2021/03/30 07:39:16;;;;;;;2.90;2.70;;;;;;;;;;5067742;28;20037;-63
2021/03/30 07:41:42;;;;;;;0.45;0.45;;;;;;;;;;5067475;28;20497;-64
2021/03/30 07:44:09;;;;;;;0.10;0.10;;;;;;;;;;5067892;28;20029;-65
2021/03/30 07:46:35;;;;;;;0.20;0.20;;;;;;;;;;5065730;28;20099;-63
2021/03/30 07:49:03;;;;;;;0.10;0.10;;;;;;;;;;5066863;28;20036;-63
2021/03/30 07:51:38;;;;;;;0.17;0.17;;;;;;;;;;5069659;28;20383;-64
2021/03/30 07:54:08;;;;;;;0.10;0.10;;;;;;;;;;5067550;28;20028;-64
2021/03/30 07:56:40;;;;;;;0.10;0.10;;;;;;;;;;5068003;28;20024;-62
2021/03/30 07:59:08;;;;;;;0.10;0.10;;;;;;;;;;5067924;28;20029;-64
2021/03/30 08:01:34;;;;;;;0.35;0.35;;;;;;;;;;5065592;28;20044;-64
2021/03/30 08:04:01;;;;;;;0.10;0.10;;;;;;;;;;5066081;28;20115;-63
2021/03/30 08:06:30;;;;;;;0.20;0.20;;;;;;;;;;5068876;28;20029;-63
2021/03/30 08:08:58;;;;;;;0.00;0.00;;;;;;;;;;5065462;28;20052;-64
2021/03/30 08:11:39;;;;;;;0.28;0.28;;;;;;;;;;5068694;28;20028;-64
2021/03/30 08:14:06;;;;;;;3.67;3.50;;;;;;;;;;5066745;28;20509;-63
2021/03/30 08:16:34;;;;;;;11.10;3.30;;;;;;;;;;5065340;28;20029;-63
2021/03/30 08:19:00;;;;;;;0.10;0.10;;;;;;;;;;5063865;28;20517;-63
2021/03/30 08:21:26;;;;;;;0.00;0.00;;;;;;;;;;5068613;28;20047;-64
2021/03/30 08:23:52;;;;;;;0.10;0.10;;;;;;;;;;5064089;28;20052;-63
2021/03/30 08:26:18;;;;;;;0.10;0.10;;;;;;;;;;5067387;28;20089;-63
2021/03/30 08:28:55;;;;;;;0.30;0.30;;;;;;;;;;5065452;28;20029;-63
2021/03/30 08:31:31;;;;;;;0.00;0.00;;;;;;;;;;5062568;28;20119;-64
2021/03/30 08:33:58;;;;;;;0.30;0.25;;;;;;;;;;5067088;28;20105;-63
2021/03/30 08:36:30;;;;;;;0.45;0.45;;;;;;;;;;5065549;28;20177;-63
2021/03/30 08:38:58;;;;;;;0.10;0.10;;;;;;;;;;5067809;28;20115;-62
2021/03/30 08:41:43;;;;;;;2.17;1.05;;;;;;;;;;5069471;28;20048;-64
2021/03/30 08:44:13;;;;;;;0.10;0.10;;;;;;;;;;5069731;28;20024;-64
2021/03/30 08:46:40;;;;;;;0.10;0.10;;;;;;;;;;5067139;28;20052;-64
2021/03/30 08:49:25;;;;;;;0.10;0.10;;;;;;;;;;5067540;28;20028;-64
2021/03/30 08:51:58;;;;;;;0.30;0.30;;;;;;;;;;5066399;28;20071;-64
2021/03/30 08:54:29;;;;;;;3.50;0.65;;;;;;;;;;5063312;28;20059;-63
2021/03/30 08:56:59;;;;;;;0.00;0.00;;;;;;;;;;5064206;28;20047;-63
2021/03/30 08:59:26;;;;;;;0.90;0.30;;;;;;;;;;5064948;28;20040;-65
2021/03/30 09:01:57;;;;;;;0.20;0.20;;;;;;;;;;5064605;28;20040;-65
2021/03/30 09:04:23;;;;;;;0.30;0.30;;;;;;;;;;5066842;28;20025;-64
2021/03/30 09:06:55;;;;;;;0.28;0.28;;;;;;;;;;5063324;28;20029;-65
2021/03/30 09:09:22;;;;;;;1.13;0.93;;;;;;;;;;5066314;28;20513;-65
2021/03/30 09:11:48;;;;;;;0.20;0.20;;;;;;;;;;5065632;28;20027;-64
2021/03/30 09:14:21;;;;;;;0.88;0.82;;;;;;;;;;5054532;28;20512;-64
2021/03/30 09:16:50;;;;;;;0.15;0.15;;;;;;;;;;5064085;28;20112;-64
2021/03/30 09:19:20;;;;;;;5.00;4.68;;;;;;;;;;5065510;28;20033;-64
2021/03/30 09:21:49;;;;;;;0.10;0.10;;;;;;;;;;5065237;28;20455;-64
2021/03/30 09:26:54;;;;;;;1.75;0.85;;;;;;;;;;5068257;28;20094;-65
2021/03/30 09:29:20;;;;;;;0.10;0.10;;;;;;;;;;5054511;28;20087;-64
2021/03/30 09:31:47;;;;;;;0.82;0.63;;;;;;;;;;5064123;28;20060;-64
2021/03/30 09:34:13;;;;;;;2.60;0.45;;;;;;;;;;5064038;28;20541;-64
2021/03/30 09:36:40;;;;;;;0.10;0.10;;;;;;;;;;5066829;28;20045;-64
2021/03/30 09:39:06;;;;;;;0.00;0.00;;;;;;;;;;5062428;28;20044;-63
2021/03/30 09:41:39;;;;;;;0.10;0.10;;;;;;;;;;5073947;28;20530;-63
2021/03/30 09:44:06;;;;;;;0.47;0.47;;;;;;;;;;5058233;28;20025;-64
2021/03/30 09:46:32;;;;;;;0.17;0.17;;;;;;;;;;5059799;28;20108;-64
2021/03/30 09:48:59;;;;;;;0.60;0.32;;;;;;;;;;5066689;28;20452;-65
2021/03/30 09:51:25;;;;;;;0.35;0.35;;;;;;;;;;5057843;28;20028;-64
2021/03/30 09:53:51;;;;;;;0.00;0.00;;;;;;;;;;5055661;28;20499;-64
2021/03/30 09:56:21;;;;;;;3.97;0.30;;;;;;;;;;5058701;28;20026;-64
2021/03/30 09:58:48;;;;;;;1.50;0.40;;;;;;;;;;5058536;28;20025;-65
2021/03/30 10:01:14;;;;;;;0.10;0.10;;;;;;;;;;5061468;28;20410;-64
2021/03/30 10:03:40;;;;;;;0.75;0.75;;;;;;;;;;5070235;28;20453;-63
2021/03/30 10:06:26;;;;;;;1.45;0.22;;;;;;;;;;5069851;28;20423;-64
2021/03/30 10:09:03;;;;;;;0.30;0.30;;;;;;;;;;5070834;28;20021;-63
2021/03/30 10:11:30;;;;;;;0.52;0.52;;;;;;;;;;5067370;28;20469;-63
2021/03/30 10:13:56;;;;;;;0.10;0.10;;;;;;;;;;5060313;28;20475;-64
2021/03/30 10:16:23;;;;;;;0.20;0.20;;;;;;;;;;5062241;28;20497;-63
2021/03/30 10:18:49;;;;;;;3.70;0.85;;;;;;;;;;5067958;28;20028;-64
2021/03/30 10:21:19;;;;;;;0.30;0.25;;;;;;;;;;5056517;28;20032;-65
2021/03/30 10:23:50;;;;;;;0.00;0.00;;;;;;;;;;5055377;28;20467;-64
2021/03/30 10:26:17;;;;;;;0.20;0.20;;;;;;;;;;5057541;28;20067;-65
2021/03/30 10:28:53;;;;;;;14.70;6.00;;;;;;;;;;5058470;28;20025;-64
2021/03/30 10:31:43;;;;;;;0.60;0.40;;;;;;;;;;5058274;28;20061;-65
2021/03/30 10:34:23;;;;;;;0.20;0.20;;;;;;;;;;5058138;28;20576;-65
2021/03/30 10:36:54;;;;;;;0.38;0.38;;;;;;;;;;5058171;28;20032;-64
2021/03/30 10:39:30;;;;;;;1.45;0.68;;;;;;;;;;5055562;28;20029;-62
2021/03/30 10:41:56;;;;;;;;;;;;;;;;;;5054018;28;20501;-64
2021/03/30 10:44:32;;;;;;;0.10;0.10;;;;;;;;;;5057202;28;19905;-64
2021/03/30 10:46:58;;;;;;;0.80;0.45;;;;;;;;;;5066764;28;20535;-64
2021/03/30 10:49:24;;;;;;;4.28;0.52;;;;;;;;;;5062354;28;20104;-64
2021/03/30 10:51:50;;;;;;;0.35;0.20;;;;;;;;;;5057572;28;20299;-65
2021/03/30 10:54:20;;;;;;;0.28;0.28;;;;;;;;;;5055531;28;20025;-65
2021/03/30 10:56:46;;;;;;;0.40;0.40;;;;;;;;;;5053713;28;20035;-65
2021/03/30 10:59:13;;;;;;;1.05;0.95;;;;;;;;;;5057331;28;20078;-65
2021/03/30 11:01:40;;;;;;;0.47;0.30;;;;;;;;;;5057257;28;20059;-64
2021/03/30 11:04:07;;;;;;;2.72;0.35;;;;;;;;;;5059145;28;20052;-64
2021/03/30 11:06:34;;;;;;;0.50;0.47;;;;;;;;;;5069182;28;20064;-65
2021/03/30 11:09:00;;;;;;;2.30;2.17;;;;;;;;;;5053747;28;20016;-64
2021/03/30 11:11:26;;;;;;;1.55;0.93;;;;;;;;;;5038984;28;20577;-65
2021/03/30 11:13:52;;;;;;;0.68;0.47;;;;;;;;;;5057482;28;20021;-65
2021/03/30 11:16:19;;;;;;;1.45;1.35;;;;;;;;;;5056694;28;20112;-65
2021/03/30 11:18:45;;;;;;;1.75;0.50;;;;;;;;;;5067072;28;20669;-65
2021/03/30 11:21:11;;;;;;;3.53;0.90;;;;;;;;;;5054092;28;20044;-65
2021/03/30 11:23:38;;;;;;;1.15;1.08;;;;;;;;;;5066298;28;20052;-65
2021/03/30 11:26:05;;;;;;;2.25;0.50;;;;;;;;;;5065401;28;20131;-66
2021/03/30 11:28:40;;;;;;;2.00;1.15;;;;;;;;;;5060051;28;20040;-64
2021/03/30 11:31:12;;;;;;;;;;;;;;;;;;5066794;28;20466;-64
2021/03/30 11:33:43;;;;;;;1.42;1.20;;;;;;;;;;5068346;28;20530;-65
2021/03/30 11:36:14;;;;;;;3.20;1.25;;;;;;;;;;5058982;28;20021;-64
2021/03/30 11:38:41;;;;;;;3.75;0.15;;;;;;;;;;5068606;28;20025;-64
2021/03/30 11:41:07;;;;;;;0.00;0.00;;;;;;;;;;5068043;28;20028;-64
2021/03/30 11:43:33;;;;;;;1.60;0.57;;;;;;;;;;5066513;28;20048;-64
2021/03/30 11:45:59;;;;;;;0.57;0.32;;;;;;;;;;5066666;28;20066;-64
2021/03/30 11:48:25;;;;;;;0.05;0.05;;;;;;;;;;5068626;28;20024;-64
2021/03/30 11:50:51;;;;;;;4.63;0.93;;;;;;;;;;5065885;28;20382;-63
2021/03/30 11:53:18;;;;;;;1.70;0.95;;;;;;;;;;5066922;28;20379;-65
2021/03/30 11:55:44;;;;;;;5.50;1.17;;;;;;;;;;5067015;28;20028;-64
2021/03/30 11:58:10;;;;;;;1.52;0.60;;;;;;;;;;5068730;28;20088;-65
2021/03/30 12:00:36;;;;;;;0.57;0.32;;;;;;;;;;5067394;28;20091;-64
2021/03/30 12:03:02;;;;;;;0.30;0.20;;;;;;;;;;5068941;28;20036;-65
2021/03/30 12:05:28;;;;;;;1.02;0.98;;;;;;;;;;5069257;28;20024;-65
2021/03/30 12:07:55;;;;;;;11.52;1.73;;;;;;;;;;5068250;28;20032;-65
2021/03/30 12:10:22;;;;;;;0.17;0.17;;;;;;;;;;5065867;28;20008;-63
2021/03/30 12:12:48;;;;;;;1.20;0.55;;;;;;;;;;5068572;28;20029;-65
2021/03/30 12:15:16;;;;;;;1.90;1.10;;;;;;;;;;5068612;28;20028;-65
2021/03/30 12:17:42;;;;;;;0.35;0.15;;;;;;;;;;5069989;28;20028;-64
2021/03/30 12:20:09;;;;;;;0.47;0.40;;;;;;;;;;5066338;28;20038;-64
2021/03/30 12:22:35;;;;;;;0.55;0.55;;;;;;;;;;5067433;28;20071;-64
2021/03/30 12:25:03;;;;;;;0.50;0.38;;;;;;;;;;5063870;28;20047;-66
2021/03/30 12:27:29;;;;;;;0.80;0.70;;;;;;;;;;5066594;28;20028;-66
2021/03/30 12:29:55;;;;;;;0.63;0.52;;;;;;;;;;5068974;28;20040;-67
2021/03/30 12:32:21;;;;;;;1.45;0.60;;;;;;;;;;5070637;28;20051;-66
2021/03/30 12:34:47;;;;;;;1.52;0.85;;;;;;;;;;5068257;28;20024;-67
2021/03/30 12:37:13;;;;;;;7.03;1.65;;;;;;;;;;5067974;28;20036;-66
2021/03/30 12:39:39;;;;;;;0.28;0.20;;;;;;;;;;5068973;28;20024;-66
2021/03/30 12:42:06;;;;;;;0.85;0.57;;;;;;;;;;5068940;28;20047;-74
2021/03/30 12:44:33;;;;;;;0.32;0.03;;;;;;;;;;5070752;28;20552;-66
2021/03/30 12:46:59;;;;;;;5.05;2.97;;;;;;;;;;5068886;28;20032;-67
2021/03/30 12:49:26;;;;;;;1.65;0.63;;;;;;;;;;5068652;28;20023;-66
2021/03/30 12:51:52;;;;;;;0.35;0.22;;;;;;;;;;5068849;28;20363;-66
2021/03/30 12:54:19;;;;;;;0.45;0.35;;;;;;;;;;5068814;28;20043;-65
2021/03/30 12:56:45;;;;;;;0.15;0.15;;;;;;;;;;5068072;28;20205;-65
2021/03/30 12:59:11;;;;;;;0.85;0.85;;;;;;;;;;5068580;28;20036;-60
2021/03/30 13:01:38;;;;;;;4.28;1.35;;;;;;;;;;5065843;28;20755;-60
2021/03/30 13:04:05;;;;;;;0.05;0.05;;;;;;;;;;5065020;28;20409;-62
2021/03/30 13:06:31;;;;;;;1.48;0.95;;;;;;;;;;5067767;28;20029;-69
2021/03/30 13:08:57;;;;;;;0.20;0.20;;;;;;;;;;5067227;28;20398;-67
2021/03/30 13:11:24;;;;;;;0.20;0.20;;;;;;;;;;5066737;28;20078;-66
2021/03/30 13:13:50;;;;;;;0.15;0.15;;;;;;;;;;5069561;28;20028;-66
2021/03/30 13:16:17;;;;;;;0.20;0.10;;;;;;;;;;5070849;28;20032;-66
2021/03/30 13:18:43;;;;;;;0.55;0.35;;;;;;;;;;5070625;28;20024;-68
2021/03/30 13:21:10;;;;;;;1.90;0.80;;;;;;;;;;5071755;28;20498;-66
2021/03/30 13:23:37;;;;;;;0.10;0.10;;;;;;;;;;5070141;28;20478;-67
2021/03/30 13:26:03;;;;;;;2.53;0.93;;;;;;;;;;5072081;28;20025;-68
2021/03/30 13:28:29;;;;;;;1.33;0.30;;;;;;;;;;5072259;28;20478;-65
2021/03/30 13:30:55;;;;;;;0.20;0.10;;;;;;;;;;5069094;28;20178;-67
2021/03/30 13:33:21;;;;;;;0.10;0.10;;;;;;;;;;5070540;28;20032;-66
2021/03/30 13:35:47;;;;;;;0.25;0.15;;;;;;;;;;5067683;28;20058;-66
2021/03/30 13:38:13;;;;;;;9.55;0.73;;;;;;;;;;5070715;28;20533;-67
2021/03/30 13:40:40;;;;;;;0.17;0.17;;;;;;;;;;5070149;28;20414;-74
2021/03/30 13:43:06;;;;;;;2.83;1.13;;;;;;;;;;5069095;28;20024;-72
2021/03/30 13:45:35;;;;;;;1.20;0.65;;;;;;;;;;5070589;28;20035;-72
2021/03/30 13:48:02;;;;;;;0.50;0.32;;;;;;;;;;5071736;28;20081;-73
2021/03/30 13:50:32;;;;;;;9.13;2.05;;;;;;;;;;5071138;28;20032;-73
2021/03/30 13:52:58;;;;;;;0.60;0.40;;;;;;;;;;5071479;28;20478;-74
2021/03/30 13:55:24;;;;;;;0.50;0.47;;;;;;;;;;5070026;28;20566;-74
2021/03/30 13:57:50;;;;;;;0.38;0.38;;;;;;;;;;5070978;28;20021;-74
2021/03/30 14:00:16;;;;;;;4.50;1.85;;;;;;;;;;5070833;28;20066;-73
2021/03/30 14:02:42;;;;;;;2.13;0.43;;;;;;;;;;5070695;28;20060;-66
2021/03/30 14:05:09;;;;;;;4.70;1.70;;;;;;;;;;5072459;28;20118;-73
2021/03/30 14:07:35;;;;;;;4.97;1.55;;;;;;;;;;5067586;28;20385;-71
2021/03/30 14:10:01;;;;;;;0.25;0.13;;;;;;;;;;5070262;28;20035;-74
2021/03/30 14:15:09;;;;;;;0.25;0.25;;;;;;;;;;5069607;28;20029;-62
2021/03/30 14:17:39;;;;;;;1.75;1.00;;;;;;;;;;5069946;28;20028;-61
2021/03/30 14:20:07;;;;;;;0.95;0.73;;;;;;;;;;5084604;28;20025;-62
2021/03/30 14:22:34;;;;;;;0.65;0.35;;;;;;;;;;5067408;28;20031;-62
2021/03/30 14:25:03;;;;;;;3.65;1.35;;;;;;;;;;5065925;28;20036;-62
2021/03/30 14:27:30;;;;;;;1.23;0.57;;;;;;;;;;5071166;28;20021;-61
2021/03/30 14:29:56;;;;;;;1.58;0.50;;;;;;;;;;5067367;28;20036;-62
2021/03/30 14:32:25;;;;;;;0.13;0.13;;;;;;;;;;5067994;28;20012;-62
2021/03/30 14:34:52;;;;;;;0.17;0.17;;;;;;;;;;5071003;28;20082;-62
2021/03/30 14:37:20;;;;;;;0.45;0.45;;;;;;;;;;5068040;28;20502;-62
2021/03/30 14:39:48;;;;;;;0.38;0.32;;;;;;;;;;5069865;28;20401;-61
2021/03/30 14:42:17;;;;;;;0.75;0.35;;;;;;;;;;5065087;28;20994;-61
2021/03/30 14:52:53;;;;;;;0.35;0.35;;;;;;;;;;5069214;28;20039;-61
2021/03/30 15:05:52;;;;;;;1.83;0.98;;;;;;;;;;5017652;28;20029;-62
2021/03/30 15:08:18;;;;;;;2.00;0.70;;;;;;;;;;5016448;28;20500;-63
2021/03/30 15:10:44;;;;;;;10.20;1.52;;;;;;;;;;5020719;28;20048;-62
2021/03/30 15:13:10;;;;;;;0.13;0.13;;;;;;;;;;5020733;28;20072;-62
2021/03/30 15:15:39;;;;;;;0.00;0.00;;;;;;;;;;5020113;28;20034;-61
2021/03/30 15:18:05;;;;;;;0.03;0.03;;;;;;;;;;5020430;28;20103;-62
2021/03/30 15:20:32;;;;;;;3.13;2.63;;;;;;;;;;5021725;28;20033;-63
2021/03/30 15:22:58;;;;;;;0.10;0.10;;;;;;;;;;5022181;28;20527;-64
2021/03/30 15:25:24;;;;;;;0.47;0.15;;;;;;;;;;5026498;28;20099;-62
2021/03/30 15:27:50;;;;;;;0.00;0.00;;;;;;;;;;5022287;28;20470;-64
2021/03/30 15:30:17;;;;;;;1.58;1.45;;;;;;;;;;5011023;28;20042;-64
2021/03/30 15:32:43;;;;;;;1.20;0.98;;;;;;;;;;5019406;28;20691;-64
2021/03/30 15:35:10;;;;;;;0.03;0.03;;;;;;;;;;5022994;28;20034;-62
2021/03/30 15:37:37;;;;;;;1.00;1.00;;;;;;;;;;5063229;28;20032;-63
2021/03/30 15:40:07;;;;;;;1.88;0.68;;;;;;;;;;5064513;28;20026;-62
2021/03/30 15:42:33;;;;;;;0.00;0.00;;;;;;;;;;5056346;28;20040;-63
2021/03/30 15:45:47;;;;;;;0.00;0.00;;;;;;;;;;5068154;28;20032;-61
2021/03/30 15:47:49;;;;;;;1.77;0.70;;;;;;;;;;5058708;28;20032;-62
2021/03/30 15:50:15;;;;;;;0.00;0.00;;;;;;;;;;5067329;28;20020;-62
2021/03/30 15:52:42;;;;;;;0.10;0.10;;;;;;;;;;5058364;28;20124;-62
2021/03/30 15:55:11;;;;;;;0.00;0.00;;;;;;;;;;5054901;28;20078;-63
2021/03/30 15:57:38;;;;;;;0.28;0.28;;;;;;;;;;5054341;28;20089;-63
2021/03/30 16:00:06;;;;;;;0.00;0.00;;;;;;;;;;5050346;28;20041;-62
2021/03/30 16:02:36;;;;;;;0.00;0.00;;;;;;;;;;5051318;28;20094;-62
2021/03/30 16:05:03;;;;;;;0.00;0.00;;;;;;;;;;5056088;28;20074;-62
2021/03/30 16:07:29;;;;;;;0.65;0.65;;;;;;;;;;5058534;28;20040;-62
2021/03/30 16:09:55;;;;;;;0.68;0.05;;;;;;;;;;5059795;28;20033;-63
2021/03/30 16:12:21;;;;;;;0.10;0.10;;;;;;;;;;5053562;28;20111;-61
2021/03/30 16:14:47;;;;;;;0.00;0.00;;;;;;;;;;5056812;28;20033;-62
2021/03/30 16:17:13;;;;;;;0.00;0.00;;;;;;;;;;5059631;28;20025;-62
2021/03/30 16:19:39;;;;;;;0.17;0.17;;;;;;;;;;5058112;28;20119;-61
2021/03/30 16:22:07;;;;;;;0.20;0.20;;;;;;;;;;5058973;28;20107;-62
2021/03/30 16:24:33;;;;;;;3.28;0.80;;;;;;;;;;5062985;28;20025;-63
2021/03/30 16:27:00;;;;;;;0.43;0.43;;;;;;;;;;5057575;28;20090;-62
2021/03/30 16:29:26;;;;;;;0.00;0.00;;;;;;;;;;5054741;28;20032;-62
2021/03/30 16:31:52;;;;;;;0.60;0.60;;;;;;;;;;5057626;28;20037;-62
2021/03/30 16:34:18;;;;;;;0.00;0.00;;;;;;;;;;5062022;28;20375;-62
2021/03/30 16:36:44;;;;;;;0.22;0.22;;;;;;;;;;5058100;28;20032;-63
2021/03/30 16:39:10;;;;;;;0.00;0.00;;;;;;;;;;5061714;28;20021;-62
2021/03/30 16:41:36;;;;;;;45.47;11.90;;;;;;;;;;5052383;28;20067;-62
2021/03/30 16:44:03;;;;;;;0.00;0.00;;;;;;;;;;5058279;28;20024;-62
2021/03/30 16:46:29;;;;;;;0.00;0.00;;;;;;;;;;5055960;28;20174;-62
2021/03/30 16:48:55;;;;;;;0.20;0.20;;;;;;;;;;5054708;28;20493;-62
2021/03/30 16:51:27;;;;;;;0.00;0.00;;;;;;;;;;5058974;28;20472;-62
2021/03/30 16:53:53;;;;;;;0.05;0.05;;;;;;;;;;5054121;28;20041;-63
2021/03/30 16:56:20;;;;;;;0.00;0.00;;;;;;;;;;5061249;28;20107;-62
2021/03/30 16:58:46;;;;;;;1.10;1.10;;;;;;;;;;5058598;28;20498;-62
2021/03/30 17:01:12;;;;;;;0.00;0.00;;;;;;;;;;5051872;28;20047;-63
2021/03/30 17:03:39;;;;;;;0.00;0.00;;;;;;;;;;5050056;28;20029;-63
2021/03/30 17:06:05;;;;;;;0.00;0.00;;;;;;;;;;5049352;28;20052;-63
2021/03/30 17:08:33;;;;;;;0.00;0.00;;;;;;;;;;5064668;28;20454;-63
2021/03/30 17:10:59;;;;;;;0.13;0.13;;;;;;;;;;5059280;28;20021;-63
2021/03/30 17:13:25;;;;;;;0.00;0.00;;;;;;;;;;5056640;28;20025;-63
2021/03/30 17:15:52;;;;;;;0.20;0.20;;;;;;;;;;5055896;28;20529;-63
2021/03/30 17:18:18;;;;;;;0.50;0.50;;;;;;;;;;5052148;28;20020;-64
2021/03/30 17:20:45;;;;;;;0.00;0.00;;;;;;;;;;5064468;28;20028;-65
2021/03/30 17:23:11;;;;;;;0.00;0.00;;;;;;;;;;5064496;28;20032;-63
2021/03/30 17:25:38;;;;;;;0.00;0.00;;;;;;;;;;5059022;28;20064;-63
2021/03/30 17:28:04;;;;;;;0.00;0.00;;;;;;;;;;5062405;28;20399;-63
2021/03/30 17:30:31;;;;;;;0.00;0.00;;;;;;;;;;5056348;28;20250;-63
2021/03/30 17:32:57;;;;;;;0.00;0.00;;;;;;;;;;5051541;28;20029;-63
2021/03/30 17:35:23;;;;;;;0.38;0.38;;;;;;;;;;5054846;28;20037;-63
2021/03/30 17:37:50;;;;;;;0.00;0.00;;;;;;;;;;5055426;28;20033;-63
2021/03/30 17:40:17;;;;;;;0.30;0.30;;;;;;;;;;5055048;28;20100;-63
2021/03/30 17:42:43;;;;;;;0.47;0.45;;;;;;;;;;5056362;28;20124;-63
2021/03/30 17:45:11;;;;;;;0.00;0.00;;;;;;;;;;5058976;28;20028;-63
2021/03/30 17:47:38;;;;;;;0.00;0.00;;;;;;;;;;5053294;28;20043;-63
2021/03/30 17:50:05;;;;;;;0.00;0.00;;;;;;;;;;5064245;28;20071;-63
2021/03/30 17:52:31;;;;;;;0.00;0.00;;;;;;;;;;5066897;28;20124;-64
2021/03/30 17:54:57;;;;;;;0.00;0.00;;;;;;;;;;5066739;28;20052;-60
2021/03/30 17:57:24;;;;;;;0.00;0.00;;;;;;;;;;5067690;28;20058;-63
2021/03/30 17:59:50;;;;;;;0.00;0.00;;;;;;;;;;5071584;28;20078;-63
2021/03/30 18:02:17;;;;;;;0.00;0.00;;;;;;;;;;5068450;28;20045;-62
2021/03/30 18:04:43;;;;;;;0.00;0.00;;;;;;;;;;5062662;28;20017;-63
2021/03/30 18:07:09;;;;;;;0.00;0.00;;;;;;;;;;5069722;28;20025;-63
2021/03/30 18:09:35;;;;;;;0.00;0.00;;;;;;;;;;5068881;28;20055;-62
2021/03/30 18:12:01;;;;;;;0.00;0.00;;;;;;;;;;5070020;28;20514;-63
2021/03/30 18:14:27;;;;;;;0.00;0.00;;;;;;;;;;5064629;28;20025;-63
2021/03/30 18:16:56;;;;;;;0.00;0.00;;;;;;;;;;5059889;28;20032;-62
2021/03/30 18:19:22;;;;;;;0.00;0.00;;;;;;;;;;5075916;28;20067;-63
2021/03/30 18:21:48;;;;;;;0.00;0.00;;;;;;;;;;5072097;28;20029;-63
2021/03/30 18:24:14;;;;;;;0.00;0.00;;;;;;;;;;5074688;28;20035;-63
2021/03/30 18:26:41;;;;;;;0.00;0.00;;;;;;;;;;5071527;28;20025;-63
2021/03/30 18:29:07;;;;;;;0.00;0.00;;;;;;;;;;5067299;28;20012;-60
2021/03/30 18:31:34;;;;;;;0.00;0.00;;;;;;;;;;5064978;28;20039;-62
2021/03/30 18:34:01;;;;;;;0.00;0.00;;;;;;;;;;5067538;28;20032;-63
2021/03/30 18:36:27;;;;;;;0.00;0.00;;;;;;;;;;5066953;28;20024;-62
2021/03/30 18:38:53;;;;;;;0.00;0.00;;;;;;;;;;5061018;28;21085;-63
2021/03/30 18:41:19;;;;;;;0.00;0.00;;;;;;;;;;5067580;28;20508;-63
2021/03/30 18:43:46;;;;;;;0.00;0.00;;;;;;;;;;5065744;28;20028;-61
2021/03/30 18:46:12;;;;;;;0.00;0.00;;;;;;;;;;5066548;28;20102;-61
2021/03/30 18:48:38;;;;;;;0.00;0.00;;;;;;;;;;5066200;28;20024;-62
2021/03/30 18:51:04;;;;;;;0.28;0.28;;;;;;;;;;5068112;28;20029;-62
2021/03/30 18:53:30;;;;;;;0.00;0.00;;;;;;;;;;5069643;28;20040;-62
2021/03/30 18:55:57;;;;;;;0.10;0.10;;;;;;;;;;5066326;28;20479;-61
2021/03/30 18:58:30;;;;;;;0.00;0.00;;;;;;;;;;5067008;28;20402;-60
2021/03/30 19:01:00;;;;;;;0.00;0.00;;;;;;;;;;5064531;28;20266;-61
2021/03/30 19:03:26;;;;;;;0.00;0.00;;;;;;;;;;5066364;28;20078;-61
2021/03/30 19:05:53;;;;;;;0.00;0.00;;;;;;;;;;5066808;28;20094;-63
2021/03/30 19:08:19;;;;;;;0.00;0.00;;;;;;;;;;5067502;28;20024;-63
2021/03/30 19:10:46;;;;;;;0.00;0.00;;;;;;;;;;5068922;28;20036;-62
2021/03/30 19:13:13;;;;;;;0.00;0.00;;;;;;;;;;5066082;28;20036;-62
2021/03/30 19:15:39;;;;;;;0.00;0.00;;;;;;;;;;5068544;28;20021;-64
2021/03/30 19:18:06;;;;;;;0.00;0.00;;;;;;;;;;5068799;28;20028;-64
2021/03/30 19:20:32;;;;;;;0.00;0.00;;;;;;;;;;5067525;28;20008;-63
2021/03/30 19:22:58;;;;;;;0.00;0.00;;;;;;;;;;5066327;28;20040;-62
2021/03/30 19:25:25;;;;;;;0.00;0.00;;;;;;;;;;5066628;28;20058;-62
2021/03/30 19:27:55;;;;;;;0.00;0.00;;;;;;;;;;5065743;28;20035;-63
2021/03/30 19:30:27;;;;;;;0.00;0.00;;;;;;;;;;5066950;28;20033;-62
2021/03/30 19:32:56;;;;;;;0.00;0.00;;;;;;;;;;5067601;28;20037;-63
2021/03/30 19:37:49;;;;;;;0.00;0.00;;;;;;;;;;5065468;28;20067;-62
2021/03/30 19:40:15;;;;;;;0.00;0.00;;;;;;;;;;5066385;28;20090;-63
2021/03/30 19:42:41;;;;;;;0.00;0.00;;;;;;;;;;5065974;28;20032;-63
2021/03/30 19:45:08;;;;;;;0.00;0.00;;;;;;;;;;5066735;28;20059;-63
2021/03/30 19:47:34;;;;;;;0.00;0.00;;;;;;;;;;5069589;28;20158;-63
2021/03/30 19:50:01;;;;;;;0.00;0.00;;;;;;;;;;5068282;28;20103;-63
2021/03/30 19:52:31;;;;;;;0.00;0.00;;;;;;;;;;5065896;28;20087;-64
2021/03/30 19:54:58;;;;;;;0.00;0.00;;;;;;;;;;5066206;28;20037;-63
2021/03/30 19:57:24;;;;;;;0.00;0.00;;;;;;;;;;5064573;28;20029;-63
2021/03/30 19:59:50;;;;;;;0.00;0.00;;;;;;;;;;5067910;28;20044;-64
2021/03/30 20:02:16;;;;;;;0.00;0.00;;;;;;;;;;5067546;28;20044;-62
2021/03/30 20:04:43;;;;;;;0.00;0.00;;;;;;;;;;5066997;28;20037;-62
2021/03/30 20:07:09;;;;;;;0.00;0.00;;;;;;;;;;5065620;28;20032;-62
2021/03/30 20:09:35;;;;;;;0.00;0.00;;;;;;;;;;5065114;28;20082;-62
2021/03/30 20:12:01;;;;;;;0.00;0.00;;;;;;;;;;5066463;28;20024;-62
2021/03/30 20:14:27;;;;;;;0.00;0.00;;;;;;;;;;5067631;28;20091;-62
2021/03/30 20:16:54;;;;;;;1.10;1.10;;;;;;;;;;5065622;28;20126;-62